Time;durP1;ratioP1;P1;durP2;ratioP2;P2;SDS_P1;SDS_P2;PMS_P1;PMS_P2;Temp;Humidity;BMP_temperature;BMP_pressure;BME280_temperature;BME280_humidity;BME280_pressure;Samples;Min_cycle;Max_cycle;Signal;HPM_P1;HPM_P2
2023/06/05 00:01:02;;;;;;;3.03;1.95;;;11.90;82.60;;;;;;5016031;28;20075;-46
2023/06/05 00:03:29;;;;;;;3.20;2.00;;;11.90;82.70;;;;;;5016584;28;20049;-45
2023/06/05 00:05:56;;;;;;;3.63;1.92;;;11.90;83.00;;;;;;5015024;28;20057;-46
2023/06/05 00:08:22;;;;;;;4.25;2.30;;;11.90;82.90;;;;;;5015469;28;20120;-46
2023/06/05 00:10:49;;;;;;;3.40;2.47;;;11.90;83.30;;;;;;5014780;28;20375;-45
2023/06/05 00:13:16;;;;;;;3.78;1.98;;;11.90;83.20;;;;;;5015430;28;20029;-45
2023/06/05 00:15:43;;;;;;;3.40;1.80;;;11.90;83.10;;;;;;5015306;28;20033;-47
2023/06/05 00:18:14;;;;;;;3.03;1.98;;;11.90;82.80;;;;;;5015406;28;20029;-46
2023/06/05 00:20:41;;;;;;;5.22;2.58;;;12.00;83.00;;;;;;5015526;28;20030;-48
2023/06/05 00:23:08;;;;;;;3.35;2.15;;;12.00;82.50;;;;;;5015570;28;20133;-45
2023/06/05 00:25:39;;;;;;;2.83;1.85;;;11.90;82.70;;;;;;5015790;28;20025;-46
2023/06/05 00:28:06;;;;;;;3.83;2.60;;;12.00;83.20;;;;;;5014482;28;20375;-49
2023/06/05 00:30:36;;;;;;;4.38;2.42;;;11.90;82.80;;;;;;5015552;28;20033;-45
2023/06/05 00:33:06;;;;;;;4.57;2.90;;;11.90;82.80;;;;;;5015616;28;20018;-46
2023/06/05 00:35:31;;;;;;;4.28;2.95;;;11.90;82.70;;;;;;5015478;28;20136;-47
2023/06/05 00:37:58;;;;;;;4.38;2.33;;;11.90;82.50;;;;;;5015351;28;20163;-45
2023/06/05 00:40:29;;;;;;;4.40;2.53;;;11.90;82.50;;;;;;5015496;28;20022;-46
2023/06/05 00:42:55;;;;;;;5.53;2.95;;;11.90;82.50;;;;;;5015537;28;20018;-45
2023/06/05 00:45:22;;;;;;;4.75;2.72;;;11.90;82.30;;;;;;5015254;28;20581;-45
2023/06/05 00:47:50;;;;;;;4.93;2.45;;;11.80;82.30;;;;;;5022746;28;20052;-47
2023/06/05 00:50:17;;;;;;;2.50;1.58;;;11.90;82.80;;;;;;5035042;28;20442;-46
2023/06/05 00:52:45;;;;;;;5.65;2.10;;;11.90;82.70;;;;;;5033971;28;20037;-47
2023/06/05 00:55:13;;;;;;;3.42;2.05;;;11.90;82.90;;;;;;5019266;28;20033;-47
2023/06/05 00:57:44;;;;;;;3.63;2.25;;;11.90;82.90;;;;;;5015456;28;20407;-46
2023/06/05 01:00:14;;;;;;;3.97;2.20;;;11.90;83.00;;;;;;5015260;28;20033;-47
2023/06/05 01:02:41;;;;;;;5.47;2.97;;;11.90;83.00;;;;;;5014809;28;20029;-46
2023/06/05 01:05:08;;;;;;;3.80;2.25;;;11.90;82.90;;;;;;5015089;28;20026;-46
2023/06/05 01:07:37;;;;;;;2.83;1.83;;;11.90;82.60;;;;;;5014653;28;20092;-46
2023/06/05 01:10:08;;;;;;;3.40;1.90;;;11.90;82.70;;;;;;5014735;28;20026;-45
2023/06/05 01:13:23;;;;;;;5.50;1.65;;;11.90;82.40;;;;;;5014829;28;20042;-46
2023/06/05 01:15:52;;;;;;;3.25;1.85;;;11.80;82.70;;;;;;5023992;28;20061;-45
2023/06/05 01:18:19;;;;;;;2.65;1.42;;;11.80;82.50;;;;;;5014945;28;20026;-46
2023/06/05 01:20:47;;;;;;;3.00;1.58;;;11.80;82.50;;;;;;5014655;28;20423;-46
2023/06/05 01:23:16;;;;;;;3.53;1.85;;;11.80;82.70;;;;;;5013326;28;20026;-47
2023/06/05 01:25:44;;;;;;;3.58;1.73;;;11.80;83.00;;;;;;5014223;28;20040;-45
2023/06/05 01:28:30;;;;;;;5.60;2.65;;;11.80;82.90;;;;;;5014037;28;20088;-46
2023/06/05 01:31:16;;;;;;;2.83;1.65;;;11.80;82.30;;;;;;5014571;28;20128;-45
2023/06/05 01:34:05;;;;;;;4.13;2.03;;;11.80;82.70;;;;;;5013141;28;20391;-45
2023/06/05 01:36:33;;;;;;;3.30;2.08;;;11.80;82.80;;;;;;5031006;28;20057;-46
2023/06/05 01:39:01;;;;;;;3.40;2.35;;;11.70;82.60;;;;;;5031444;28;20022;-45
2023/06/05 01:41:29;;;;;;;3.20;2.20;;;11.80;82.90;;;;;;5014622;28;20056;-46
2023/06/05 01:43:56;;;;;;;4.47;3.15;;;11.70;82.80;;;;;;5014291;28;20057;-47
2023/06/05 01:46:23;;;;;;;4.03;2.50;;;11.70;82.90;;;;;;5014195;28;20121;-45
2023/06/05 01:48:51;;;;;;;6.57;2.83;;;11.80;83.10;;;;;;5014194;28;20092;-46
2023/06/05 01:51:18;;;;;;;3.72;2.42;;;11.70;82.90;;;;;;5013351;28;20053;-46
2023/06/05 01:53:48;;;;;;;3.90;2.08;;;11.70;83.00;;;;;;5014034;28;20407;-47
2023/06/05 01:56:19;;;;;;;3.33;1.95;;;11.70;82.80;;;;;;5014265;28;20443;-45
2023/06/05 01:58:47;;;;;;;3.28;2.03;;;11.70;82.50;;;;;;5013911;28;20097;-46
2023/06/05 02:01:16;;;;;;;3.03;1.80;;;11.70;82.80;;;;;;5013940;28;20336;-46
2023/06/05 02:03:47;;;;;;;5.40;2.30;;;11.70;82.80;;;;;;5025552;28;20037;-47
2023/06/05 02:06:15;;;;;;;11.20;3.35;;;11.70;82.90;;;;;;5033176;28;20025;-46
2023/06/05 02:08:42;;;;;;;4.57;2.50;;;11.70;82.60;;;;;;5033355;28;20049;-46
2023/06/05 02:11:12;;;;;;;4.30;2.65;;;11.70;83.00;;;;;;5020381;28;20022;-46
2023/06/05 02:13:43;;;;;;;4.10;2.53;;;11.70;82.90;;;;;;5013642;28;20364;-45
2023/06/05 02:16:11;;;;;;;4.40;2.17;;;11.60;82.90;;;;;;5032306;28;20126;-47
2023/06/05 02:18:38;;;;;;;3.80;2.45;;;11.50;83.20;;;;;;5033232;28;20068;-45
2023/06/05 02:21:05;;;;;;;2.92;2.20;;;11.50;83.40;;;;;;5032313;28;20026;-47
2023/06/05 02:23:31;;;;;;;5.25;3.45;;;11.40;83.30;;;;;;5016241;28;20028;-46
2023/06/05 02:25:58;;;;;;;6.00;3.50;;;11.40;83.60;;;;;;5012582;28;20048;-45
2023/06/05 02:28:26;;;;;;;6.10;3.60;;;11.40;84.00;;;;;;5013721;28;20021;-47
2023/06/05 02:30:54;;;;;;;5.57;4.00;;;11.40;84.10;;;;;;5012628;28;20057;-47
2023/06/05 02:33:23;;;;;;;5.20;4.05;;;11.40;83.80;;;;;;5013191;28;20057;-46
2023/06/05 02:35:50;;;;;;;5.50;3.78;;;11.40;84.00;;;;;;5013292;28;20022;-45
2023/06/05 02:38:16;;;;;;;7.10;4.20;;;11.40;84.20;;;;;;5013604;28;20100;-46
2023/06/05 02:40:43;;;;;;;7.60;4.15;;;11.30;84.30;;;;;;5012288;28;20093;-46
2023/06/05 02:43:11;;;;;;;7.30;4.53;;;11.20;84.30;;;;;;5013341;28;20038;-47
2023/06/05 02:45:39;;;;;;;6.32;4.13;;;11.20;84.40;;;;;;5013467;28;20030;-48
2023/06/05 02:48:08;;;;;;;5.55;4.38;;;11.10;84.60;;;;;;5021305;28;20467;-46
2023/06/05 02:50:34;;;;;;;5.78;3.90;;;11.10;84.60;;;;;;5033182;28;20037;-47
2023/06/05 02:53:00;;;;;;;5.35;3.47;;;11.10;84.70;;;;;;5012906;28;20064;-46
2023/06/05 02:55:29;;;;;;;7.38;4.15;;;11.00;85.00;;;;;;5013182;28;20073;-46
2023/06/05 02:57:57;;;;;;;8.50;3.55;;;11.00;84.90;;;;;;5013007;28;20018;-49
2023/06/05 03:00:25;;;;;;;4.90;3.60;;;11.00;85.00;;;;;;5012028;28;20475;-46
2023/06/05 03:02:55;;;;;;;6.65;4.55;;;11.00;85.50;;;;;;5012660;28;20044;-46
2023/06/05 03:05:28;;;;;;;6.47;4.32;;;10.90;85.60;;;;;;5013041;28;20038;-46
2023/06/05 03:07:54;;;;;;;5.50;4.03;;;11.00;85.70;;;;;;5012756;28;20084;-46
2023/06/05 03:10:21;;;;;;;5.85;4.30;;;11.00;85.70;;;;;;5013062;28;20057;-45
2023/06/05 03:12:47;;;;;;;7.35;5.18;;;11.00;85.80;;;;;;5012997;28;20112;-45
2023/06/05 03:15:16;;;;;;;6.15;4.47;;;11.00;86.10;;;;;;5013001;28;20030;-46
2023/06/05 03:17:42;;;;;;;5.70;4.25;;;11.00;86.30;;;;;;5014905;28;20460;-47
2023/06/05 03:20:09;;;;;;;5.28;4.00;;;11.00;86.20;;;;;;5016982;28;20034;-46
2023/06/05 03:22:38;;;;;;;5.95;4.30;;;11.00;86.30;;;;;;5015942;28;20028;-49
2023/06/05 03:25:04;;;;;;;6.07;4.05;;;11.00;86.30;;;;;;5017186;28;20109;-46
2023/06/05 03:27:31;;;;;;;7.05;4.00;;;11.10;86.40;;;;;;5016727;28;20391;-46
2023/06/05 03:29:58;;;;;;;6.45;3.78;;;11.00;86.00;;;;;;5021372;28;20423;-46
2023/06/05 03:32:25;;;;;;;7.53;3.80;;;11.00;86.10;;;;;;5036599;28;20374;-47
2023/06/05 03:34:51;;;;;;;5.63;3.55;;;11.00;86.00;;;;;;5020497;28;20029;-46
2023/06/05 03:37:18;;;;;;;6.20;3.97;;;11.00;86.10;;;;;;5015605;28;20355;-48
2023/06/05 03:39:45;;;;;;;7.57;4.90;;;10.90;86.10;;;;;;5015495;28;20054;-46
2023/06/05 03:42:12;;;;;;;6.47;4.55;;;10.90;86.30;;;;;;5015561;28;20026;-46
2023/06/05 03:44:39;;;;;;;5.18;3.72;;;10.90;86.30;;;;;;5016662;28;20470;-45
2023/06/05 03:47:08;;;;;;;5.55;4.35;;;10.90;86.20;;;;;;5016188;28;20025;-48
2023/06/05 03:49:45;;;;;;;6.67;4.70;;;10.90;86.40;;;;;;5016668;28;20381;-46
2023/06/05 03:52:14;;;;;;;6.32;3.83;;;10.80;86.50;;;;;;5016403;28;20276;-46
2023/06/05 03:54:41;;;;;;;5.33;3.83;;;10.80;86.50;;;;;;5015681;28;20079;-45
2023/06/05 03:57:12;;;;;;;6.10;4.18;;;10.80;86.70;;;;;;5016060;28;20033;-45
2023/06/05 03:59:39;;;;;;;6.28;4.95;;;10.80;86.70;;;;;;5017270;28;20092;-46
2023/06/05 04:02:04;;;;;;;5.65;4.03;;;10.90;86.60;;;;;;5035008;28;20022;-47
2023/06/05 04:04:33;;;;;;;6.65;4.30;;;10.90;86.50;;;;;;5027009;28;20044;-48
2023/06/05 04:07:00;;;;;;;9.25;4.53;;;10.90;86.30;;;;;;5016013;28;20467;-45
2023/06/05 04:09:26;;;;;;;5.60;4.25;;;10.90;86.30;;;;;;5015914;28;20058;-46
2023/06/05 04:11:54;;;;;;;7.75;5.10;;;10.90;86.20;;;;;;5014877;28;20026;-46
2023/06/05 04:14:24;;;;;;;7.85;4.72;;;11.00;86.20;;;;;;5016143;28;20022;-45
2023/06/05 04:16:51;;;;;;;6.78;3.95;;;11.00;86.30;;;;;;5015843;28;20038;-47
2023/06/05 04:19:18;;;;;;;6.65;4.53;;;11.00;86.20;;;;;;5015881;28;20041;-46
2023/06/05 04:21:45;;;;;;;5.18;3.97;;;11.00;85.90;;;;;;5014866;28;20483;-47
2023/06/05 04:24:11;;;;;;;8.35;4.80;;;11.10;86.10;;;;;;5017621;28;20594;-47
2023/06/05 04:26:43;;;;;;;6.32;4.28;;;11.20;86.00;;;;;;5034429;28;20366;-46
2023/06/05 04:29:15;;;;;;;11.63;4.28;;;11.10;86.00;;;;;;5030442;28;20025;-46
2023/06/05 04:31:50;;;;;;;6.00;4.13;;;11.20;86.10;;;;;;5015705;28;20022;-46
2023/06/05 04:34:18;;;;;;;6.45;4.28;;;11.20;86.20;;;;;;5015456;28;20036;-46
2023/06/05 04:36:44;;;;;;;7.35;4.43;;;11.30;86.20;;;;;;5014555;28;20467;-48
2023/06/05 04:39:14;;;;;;;6.60;4.68;;;11.40;86.30;;;;;;5015545;28;20037;-46
2023/06/05 04:41:48;;;;;;;6.45;4.75;;;11.40;86.10;;;;;;5015530;28;20029;-49
2023/06/05 04:44:16;;;;;;;8.65;4.20;;;11.50;86.00;;;;;;5029873;28;20603;-46
2023/06/05 04:46:46;;;;;;;6.70;4.55;;;11.60;85.70;;;;;;5035062;28;20781;-48
2023/06/05 04:49:16;;;;;;;6.68;4.15;;;11.60;85.40;;;;;;5020857;28;20065;-45
2023/06/05 04:51:43;;;;;;;6.30;4.00;;;11.70;85.40;;;;;;5015354;28;20136;-46
2023/06/05 04:54:14;;;;;;;7.65;4.47;;;11.70;85.10;;;;;;5015185;28;20428;-45
2023/06/05 04:56:42;;;;;;;6.53;4.53;;;11.70;84.70;;;;;;5034298;28;20588;-46
2023/06/05 04:59:09;;;;;;;7.72;4.57;;;11.80;84.80;;;;;;5033960;28;20040;-46
2023/06/05 05:01:40;;;;;;;7.47;3.90;;;11.80;84.70;;;;;;5026746;28;20030;-48
2023/06/05 05:04:09;;;;;;;5.40;3.67;;;11.80;84.40;;;;;;5014111;28;20109;-46
2023/06/05 05:06:37;;;;;;;4.93;3.15;;;11.90;84.40;;;;;;5014921;28;20145;-46
2023/06/05 05:09:04;;;;;;;4.68;3.20;;;11.90;84.40;;;;;;5014833;28;20045;-46
2023/06/05 05:11:31;;;;;;;5.32;3.83;;;11.80;84.40;;;;;;5013618;28;20042;-47
2023/06/05 05:13:58;;;;;;;5.97;3.47;;;11.90;84.30;;;;;;5014923;28;20026;-48
2023/06/05 05:16:25;;;;;;;5.93;3.38;;;11.90;84.40;;;;;;5014802;28;20325;-47
2023/06/05 05:18:51;;;;;;;4.82;3.35;;;11.90;83.90;;;;;;5014610;28;20478;-46
2023/06/05 05:21:20;;;;;;;6.32;3.60;;;11.90;83.80;;;;;;5014821;28;20347;-46
2023/06/05 05:23:51;;;;;;;5.93;4.47;;;12.00;84.00;;;;;;5013926;28;20053;-45
2023/06/05 05:26:17;;;;;;;5.00;4.05;;;12.10;83.70;;;;;;5014821;28;20061;-45
2023/06/05 05:28:45;;;;;;;7.60;4.25;;;12.10;83.80;;;;;;5013591;28;20044;-46
2023/06/05 05:31:12;;;;;;;6.78;4.38;;;12.20;83.80;;;;;;5014459;28;20041;-47
2023/06/05 05:33:37;;;;;;;7.30;3.90;;;12.30;83.30;;;;;;5013544;28;20360;-45
2023/06/05 05:36:04;;;;;;;5.60;4.25;;;12.40;83.10;;;;;;5013520;28;20052;-49
2023/06/05 05:38:32;;;;;;;7.93;4.43;;;12.40;82.20;;;;;;5014111;28;20423;-49
2023/06/05 05:40:59;;;;;;;8.63;3.63;;;12.50;82.30;;;;;;5013381;28;20105;-46
2023/06/05 05:43:25;;;;;;;6.43;3.22;;;12.50;81.60;;;;;;5014035;28;20511;-45
2023/06/05 05:45:52;;;;;;;4.90;2.95;;;12.60;81.70;;;;;;5013945;28;20053;-46
2023/06/05 05:48:22;;;;;;;4.35;2.90;;;12.80;81.90;;;;;;5012769;28;20034;-46
2023/06/05 05:50:51;;;;;;;7.53;2.83;;;12.90;81.10;;;;;;5013684;28;20026;-46
2023/06/05 05:53:20;;;;;;;5.00;2.80;;;12.90;81.00;;;;;;5013082;28;20073;-46
2023/06/05 05:55:48;;;;;;;6.18;3.92;;;12.90;81.20;;;;;;5013109;28;20030;-48
2023/06/05 05:58:16;;;;;;;5.45;3.10;;;13.00;81.00;;;;;;5013761;28;20058;-46
2023/06/05 06:00:43;;;;;;;10.27;3.22;;;13.20;80.80;;;;;;5014094;28;20026;-46
2023/06/05 06:03:11;;;;;;;5.45;2.85;;;13.40;80.00;;;;;;5014218;28;20109;-48
2023/06/05 06:05:38;;;;;;;8.27;3.70;;;13.60;79.30;;;;;;5014146;28;20088;-48
2023/06/05 06:08:06;;;;;;;14.15;4.68;;;13.60;79.00;;;;;;5013515;28;20107;-47
2023/06/05 06:10:36;;;;;;;7.13;3.28;;;13.90;78.80;;;;;;5013754;28;20030;-45
2023/06/05 06:13:02;;;;;;;5.63;2.88;;;13.90;77.90;;;;;;5013623;28;20048;-46
2023/06/05 06:15:28;;;;;;;4.68;2.47;;;13.90;77.40;;;;;;5013570;28;20034;-46
2023/06/05 06:17:56;;;;;;;5.10;2.30;;;13.80;77.90;;;;;;5013583;28;20364;-47
2023/06/05 06:20:23;;;;;;;4.80;2.30;;;13.90;77.70;;;;;;5013806;28;20037;-47
2023/06/05 06:22:49;;;;;;;4.65;2.53;;;13.90;77.70;;;;;;5013658;28;20022;-46
2023/06/05 06:25:20;;;;;;;9.90;3.95;;;14.00;77.90;;;;;;5012699;28;20440;-47
2023/06/05 06:27:53;;;;;;;7.05;3.97;;;14.10;77.10;;;;;;5013610;28;20115;-46
2023/06/05 06:30:20;;;;;;;7.85;3.58;;;14.20;76.90;;;;;;5012447;28;20044;-46
2023/06/05 06:32:47;;;;;;;6.05;2.45;;;14.30;76.20;;;;;;5013359;28;20022;-46
2023/06/05 06:35:16;;;;;;;14.50;3.97;;;14.30;76.20;;;;;;5028874;28;20041;-47
2023/06/05 06:37:44;;;;;;;6.20;3.03;;;14.50;76.00;;;;;;5013310;28;20527;-47
2023/06/05 06:40:11;;;;;;;5.70;2.40;;;14.70;75.30;;;;;;5013603;28;20105;-48
2023/06/05 06:42:38;;;;;;;3.78;2.25;;;14.70;74.40;;;;;;5013584;28;20104;-46
2023/06/05 06:45:06;;;;;;;10.90;3.10;;;14.60;74.70;;;;;;5013269;28;20033;-47
2023/06/05 06:47:34;;;;;;;4.82;2.78;;;14.80;74.80;;;;;;5012130;28;20037;-47
2023/06/05 06:50:01;;;;;;;6.70;2.78;;;14.90;75.60;;;;;;5012420;28;20049;-46
2023/06/05 06:52:27;;;;;;;4.05;2.47;;;14.90;74.60;;;;;;5011447;28;20029;-46
2023/06/05 06:54:53;;;;;;;5.70;2.10;;;15.00;74.00;;;;;;5013258;28;20475;-46
2023/06/05 06:57:20;;;;;;;11.32;2.90;;;15.00;74.10;;;;;;5013154;28;20026;-46
2023/06/05 06:59:47;;;;;;;19.33;4.93;;;15.10;73.80;;;;;;5012840;28;20026;-49
2023/06/05 07:02:17;;;;;;;9.13;3.58;;;15.10;74.20;;;;;;5014526;28;20030;-45
2023/06/05 07:04:45;;;;;;;5.65;2.40;;;15.10;74.20;;;;;;5013122;28;20073;-46
2023/06/05 07:07:12;;;;;;;30.83;6.70;;;15.20;73.00;;;;;;5032124;28;20562;-47
2023/06/05 07:09:40;;;;;;;12.48;4.30;;;15.10;73.10;;;;;;5031820;28;20096;-46
2023/06/05 07:12:09;;;;;;;12.93;3.95;;;15.10;73.10;;;;;;5028758;28;20048;-46
2023/06/05 07:14:37;;;;;;;9.57;3.42;;;15.10;73.90;;;;;;5012899;28;20026;-46
2023/06/05 07:17:05;;;;;;;7.55;3.38;;;14.80;73.50;;;;;;5016709;28;20032;-46
2023/06/05 07:19:33;;;;;;;8.13;2.80;;;14.90;74.10;;;;;;5032634;28;20017;-46
2023/06/05 07:22:04;;;;;;;4.80;2.45;;;14.90;73.80;;;;;;5023645;28;20514;-46
2023/06/05 07:24:31;;;;;;;4.65;2.10;;;15.00;75.10;;;;;;5012859;28;20037;-45
2023/06/05 07:27:00;;;;;;;3.95;2.13;;;15.70;74.40;;;;;;5013139;28;20030;-46
2023/06/05 07:29:30;;;;;;;3.40;1.63;;;16.50;71.40;;;;;;5013278;28;20032;-49
2023/06/05 07:31:58;;;;;;;4.63;1.70;;;17.10;70.50;;;;;;5013115;28;20351;-45
2023/06/05 07:34:25;;;;;;;3.75;2.40;;;17.60;66.80;;;;;;5012903;28;20117;-47
2023/06/05 07:36:52;;;;;;;3.17;1.67;;;17.90;66.30;;;;;;5023281;28;20049;-46
2023/06/05 07:39:20;;;;;;;3.00;1.30;;;18.40;63.30;;;;;;5031779;28;20071;-47
2023/06/05 07:41:48;;;;;;;2.75;1.50;;;18.40;62.70;;;;;;5031597;28;20225;-46
2023/06/05 07:44:17;;;;;;;3.03;1.83;;;18.40;62.30;;;;;;5012919;28;20034;-45
2023/06/05 07:46:45;;;;;;;2.15;1.23;;;18.70;62.10;;;;;;5013051;28;20037;-47
2023/06/05 07:49:12;;;;;;;12.95;2.58;;;19.10;60.70;;;;;;5022531;28;20037;-46
2023/06/05 07:51:39;;;;;;;6.95;2.35;;;19.10;60.80;;;;;;5032627;28;20033;-46
2023/06/05 07:54:08;;;;;;;3.58;1.45;;;19.20;61.00;;;;;;5032295;28;20026;-46
2023/06/05 07:56:36;;;;;;;3.15;1.58;;;19.40;60.90;;;;;;5028405;28;20026;-47
2023/06/05 07:59:05;;;;;;;4.47;1.50;;;19.50;59.40;;;;;;5012711;28;20493;-46
2023/06/05 08:01:36;;;;;;;5.32;1.33;;;19.60;59.10;;;;;;5011924;28;20161;-46
2023/06/05 08:04:10;;;;;;;3.55;1.60;;;19.90;58.60;;;;;;5015090;28;20455;-47
2023/06/05 08:06:40;;;;;;;5.70;1.30;;;20.00;58.50;;;;;;5015158;28;20029;-47
2023/06/05 08:09:08;;;;;;;6.35;1.60;;;20.30;56.80;;;;;;5015821;28;20064;-46
2023/06/05 08:11:37;;;;;;;2.67;1.30;;;20.60;57.00;;;;;;5016049;28;20460;-47
2023/06/05 08:14:06;;;;;;;2.92;1.58;;;20.80;57.00;;;;;;5015974;28;20026;-47
2023/06/05 08:16:33;;;;;;;3.22;1.27;;;20.50;56.00;;;;;;5030453;28;20116;-47
2023/06/05 08:19:01;;;;;;;12.10;2.25;;;20.40;55.60;;;;;;5016823;28;20472;-47
2023/06/05 08:21:28;;;;;;;4.03;1.30;;;20.20;56.70;;;;;;5016353;28;20061;-47
2023/06/05 08:23:57;;;;;;;3.63;1.50;;;20.70;55.90;;;;;;5015767;28;20021;-49
2023/06/05 08:26:24;;;;;;;3.87;1.10;;;20.40;56.20;;;;;;5014822;28;20034;-47
2023/06/05 08:28:50;;;;;;;2.78;1.33;;;20.40;57.20;;;;;;5015522;28;20267;-47
2023/06/05 08:31:18;;;;;;;2.50;1.42;;;20.30;57.70;;;;;;5014873;28;20519;-46
2023/06/05 08:33:44;;;;;;;18.10;3.60;;;20.60;56.40;;;;;;5015610;28;20126;-47
2023/06/05 08:36:11;;;;;;;20.25;4.35;;;20.50;57.00;;;;;;5015500;28;20088;-48
2023/06/05 08:38:37;;;;;;;33.60;7.18;;;20.40;57.50;;;;;;5015585;28;20032;-47
2023/06/05 08:41:10;;;;;;;2.33;1.10;;;20.50;57.10;;;;;;5015408;28;20033;-47
2023/06/05 08:43:37;;;;;;;2.00;1.10;;;20.10;56.50;;;;;;5015450;28;20253;-47
2023/06/05 08:46:09;;;;;;;5.30;1.85;;;20.10;57.40;;;;;;5015683;28;20087;-48
2023/06/05 08:48:47;;;;;;;2.10;1.30;;;20.50;60.10;;;;;;5015055;28;20053;-48
2023/06/05 08:51:16;;;;;;;2.75;1.52;;;20.50;57.60;;;;;;5015360;28;20018;-47
2023/06/05 08:53:52;;;;;;;1.70;1.00;;;20.40;59.00;;;;;;5015957;28;20107;-47
2023/06/05 08:56:23;;;;;;;2.75;1.30;;;20.50;56.40;;;;;;5014101;28;20034;-47
2023/06/05 08:58:50;;;;;;;3.10;1.27;;;20.70;57.50;;;;;;5015032;28;20058;-46
2023/06/05 09:01:17;;;;;;;2.70;1.27;;;20.40;56.70;;;;;;5015379;28;20022;-47
2023/06/05 09:03:46;;;;;;;3.85;1.48;;;20.30;55.40;;;;;;5014925;28;20022;-47
2023/06/05 09:06:13;;;;;;;;;;;20.20;57.40;;;;;;5015554;28;20703;-47
2023/06/05 09:08:40;;;;;;;6.85;1.70;;;20.10;57.80;;;;;;5014874;28;20012;-46
2023/06/05 09:11:26;;;;;;;2.45;1.23;;;19.90;57.70;;;;;;5025524;28;20500;-47
2023/06/05 09:14:02;;;;;;;4.97;1.40;;;20.40;57.90;;;;;;5034411;28;20033;-47
2023/06/05 09:16:41;;;;;;;4.80;1.40;;;20.40;56.70;;;;;;5034320;28;20032;-47
2023/06/05 09:19:10;;;;;;;6.20;1.35;;;20.20;56.80;;;;;;5033303;28;20355;-49
2023/06/05 09:21:38;;;;;;;;;;;20.20;59.50;;;;;;5035280;28;20033;-47
2023/06/05 09:24:11;;;;;;;6.35;2.53;;;20.50;59.30;;;;;;5034434;28;19940;-48
2023/06/05 09:26:58;;;;;;;3.00;1.60;;;20.50;60.20;;;;;;5016885;28;20056;-48
2023/06/05 09:29:30;;;;;;;7.18;2.25;;;20.30;58.70;;;;;;5014606;28;20025;-50
2023/06/05 09:31:59;;;;;;;4.93;1.90;;;20.40;58.80;;;;;;5014730;28;20038;-47
2023/06/05 09:34:30;;;;;;;4.15;1.88;;;20.30;59.00;;;;;;5014426;28;20022;-49
2023/06/05 09:37:00;;;;;;;4.63;2.40;;;20.30;56.30;;;;;;5034098;28;20059;-51
2023/06/05 09:39:29;;;;;;;4.70;1.88;;;20.20;57.80;;;;;;5033306;28;20447;-51
2023/06/05 09:41:58;;;;;;;6.57;2.40;;;20.20;57.00;;;;;;5034143;28;20025;-49
2023/06/05 09:44:27;;;;;;;4.40;1.95;;;19.40;59.30;;;;;;5023930;28;20300;-48
2023/06/05 09:47:05;;;;;;;5.97;1.60;;;19.50;58.10;;;;;;5014404;28;20152;-51
2023/06/05 09:49:43;;;;;;;2.85;1.50;;;19.20;57.90;;;;;;5014426;28;20022;-47
2023/06/05 09:52:10;;;;;;;5.88;2.50;;;18.70;59.30;;;;;;5014167;28;20026;-48
2023/06/05 09:54:40;;;;;;;5.15;2.17;;;18.50;62.50;;;;;;5013920;28;20071;-47
2023/06/05 09:57:15;;;;;;;;;;;18.40;61.30;;;;;;5014515;28;20034;-47
2023/06/05 10:00:04;;;;;;;4.25;1.92;;;18.80;60.80;;;;;;5014071;28;19905;-47
2023/06/05 10:02:39;;;;;;;3.88;2.30;;;18.60;61.30;;;;;;5014073;28;20033;-48
2023/06/05 10:05:11;;;;;;;5.35;1.77;;;18.90;59.70;;;;;;5014027;28;20037;-47
2023/06/05 10:07:38;;;;;;;8.50;2.33;;;19.00;62.30;;;;;;5012690;28;20042;-49
2023/06/05 10:10:11;;;;;;;6.40;3.03;;;19.30;59.40;;;;;;5012776;28;20026;-48
2023/06/05 10:12:38;;;;;;;7.78;2.40;;;19.20;60.60;;;;;;5013698;28;20043;-47
2023/06/05 10:15:07;;;;;;;4.50;1.90;;;18.90;62.10;;;;;;5026178;28;20033;-47
2023/06/05 10:17:38;;;;;;;7.47;2.78;;;19.00;60.20;;;;;;5033350;28;20026;-49
2023/06/05 10:20:07;;;;;;;3.63;2.15;;;19.30;59.70;;;;;;5022836;28;20030;-48
2023/06/05 10:22:37;;;;;;;3.85;2.03;;;19.20;61.80;;;;;;5013889;28;20076;-49
2023/06/05 10:25:06;;;;;;;5.15;1.95;;;19.20;60.30;;;;;;5013755;28;20036;-47
2023/06/05 10:28:15;;;;;;;3.85;2.00;;;19.20;60.40;;;;;;5012376;28;20046;-47
2023/06/05 10:31:04;;;;;;;4.78;1.83;;;18.80;59.90;;;;;;5031160;28;20502;-49
2023/06/05 10:33:30;;;;;;;10.68;2.78;;;18.60;61.40;;;;;;5013572;28;20072;-47
2023/06/05 10:36:20;;;;;;;6.05;1.88;;;18.70;60.60;;;;;;5013467;28;20061;-47
2023/06/05 10:38:47;;;;;;;;;;;18.90;61.50;;;;;;5013990;28;20022;-47
2023/06/05 10:41:17;;;;;;;4.15;1.92;;;18.90;59.80;;;;;;5017986;28;20385;-47
2023/06/05 10:43:52;;;;;;;4.40;2.22;;;18.90;58.60;;;;;;5033394;28;20659;-47
2023/06/05 10:46:35;;;;;;;5.78;2.10;;;18.80;61.60;;;;;;5032244;28;20390;-49
2023/06/05 10:49:17;;;;;;;4.88;2.05;;;18.90;59.50;;;;;;5033079;28;20048;-47
2023/06/05 10:52:03;;;;;;;8.98;3.50;;;18.90;61.80;;;;;;5013447;28;20040;-49
2023/06/05 10:54:47;;;;;;;11.05;3.25;;;18.80;61.00;;;;;;5013237;28;20050;-47
2023/06/05 10:57:15;;;;;;;4.18;1.75;;;18.60;61.90;;;;;;5013170;28;20037;-48
2023/06/05 10:59:42;;;;;;;5.45;2.03;;;18.60;62.10;;;;;;5013105;28;20041;-47
2023/06/05 11:02:14;;;;;;;7.30;2.15;;;18.70;61.80;;;;;;5013269;28;20320;-49
2023/06/05 11:04:58;;;;;;;5.32;2.38;;;18.60;61.90;;;;;;5013618;28;20018;-48
2023/06/05 11:07:30;;;;;;;16.35;4.55;;;18.60;62.10;;;;;;5012141;28;20053;-47
2023/06/05 11:10:05;;;;;;;4.35;2.22;;;18.70;64.30;;;;;;5013107;28;20872;-47
2023/06/05 11:12:43;;;;;;;6.30;2.45;;;18.70;61.10;;;;;;5012947;28;20482;-46
2023/06/05 11:15:27;;;;;;;4.65;1.92;;;18.70;63.80;;;;;;5011973;28;20034;-47
2023/06/05 11:17:54;;;;;;;3.40;1.75;;;18.70;60.40;;;;;;5012643;28;20486;-47
2023/06/05 11:20:32;;;;;;;5.13;1.73;;;18.80;62.00;;;;;;5013227;28;20034;-49
2023/06/05 11:22:57;;;;;;;5.82;2.28;;;18.70;61.20;;;;;;5013128;28;20359;-47
2023/06/05 11:25:26;;;;;;;2.72;1.73;;;18.70;61.10;;;;;;5012752;28;20037;-47
2023/06/05 11:28:07;;;;;;;5.35;2.60;;;18.70;61.60;;;;;;5012923;28;20050;-46
2023/06/05 11:30:45;;;;;;;5.57;2.00;;;18.80;62.20;;;;;;5012863;28;20025;-47
2023/06/05 11:33:29;;;;;;;3.60;1.80;;;18.70;62.00;;;;;;5012864;28;20034;-47
2023/06/05 11:36:05;;;;;;;4.65;2.10;;;18.70;63.30;;;;;;5012691;28;20029;-48
2023/06/05 11:38:33;;;;;;;3.15;1.70;;;18.50;63.30;;;;;;5022176;28;20030;-47
2023/06/05 11:41:06;;;;;;;3.60;1.95;;;18.50;61.50;;;;;;5036144;28;20343;-47
2023/06/05 11:43:42;;;;;;;3.83;2.33;;;18.40;64.00;;;;;;5028923;28;20022;-47
2023/06/05 11:46:09;;;;;;;6.50;2.10;;;18.30;64.90;;;;;;5016420;28;20060;-47
2023/06/05 11:48:45;;;;;;;5.53;2.38;;;18.30;61.60;;;;;;5016334;28;20022;-47
2023/06/05 11:51:15;;;;;;;3.45;1.75;;;18.20;63.30;;;;;;5016371;28;20459;-47
2023/06/05 11:53:47;;;;;;;4.25;2.50;;;18.10;63.60;;;;;;5016400;28;20057;-48
2023/06/05 11:56:16;;;;;;;7.90;2.35;;;17.80;63.30;;;;;;5016286;28;20121;-47
2023/06/05 11:58:44;;;;;;;5.43;2.40;;;17.90;63.30;;;;;;5016213;28;20037;-47
2023/06/05 12:01:21;;;;;;;4.55;2.22;;;17.90;64.20;;;;;;5016232;28;20049;-47
2023/06/05 12:03:50;;;;;;;4.88;2.00;;;17.90;66.20;;;;;;4999599;28;20034;-47
2023/06/05 12:06:17;;;;;;;5.40;2.10;;;17.90;64.30;;;;;;5031329;28;20050;-47
2023/06/05 12:08:44;;;;;;;10.68;2.95;;;17.60;65.50;;;;;;5015773;28;20060;-46
2023/06/05 12:11:25;;;;;;;34.22;8.65;;;17.40;65.50;;;;;;5020811;28;20440;-46
2023/06/05 12:13:56;;;;;;;7.03;2.75;;;17.70;68.20;;;;;;5035800;28;20095;-46
2023/06/05 12:16:34;;;;;;;9.27;2.95;;;17.90;65.70;;;;;;5034638;28;20513;-49
2023/06/05 12:19:12;;;;;;;5.72;2.67;;;17.70;67.40;;;;;;5031962;28;20033;-47
2023/06/05 12:21:39;;;;;;;7.32;2.70;;;17.80;65.80;;;;;;5030795;28;20465;-46
2023/06/05 12:24:07;;;;;;;4.65;3.00;;;17.80;68.20;;;;;;5015341;28;20061;-47
2023/06/05 12:27:00;;;;;;;10.52;3.47;;;17.80;65.50;;;;;;5026313;28;20045;-46
2023/06/05 12:29:57;;;;;;;10.40;2.50;;;17.60;67.20;;;;;;5034142;28;20033;-47
2023/06/05 12:32:26;;;;;;;13.20;3.88;;;17.50;66.70;;;;;;5033057;28;20104;-47
2023/06/05 12:34:55;;;;;;;6.72;2.53;;;17.50;66.40;;;;;;5015492;28;20156;-48
2023/06/05 12:37:33;;;;;;;14.60;3.08;;;17.40;67.50;;;;;;5015637;28;20022;-47
2023/06/05 12:40:05;;;;;;;6.10;2.63;;;17.40;68.20;;;;;;5030895;28;20041;-46
2023/06/05 12:42:35;;;;;;;4.40;2.40;;;17.40;69.20;;;;;;5015257;28;20033;-47
2023/06/05 12:45:08;;;;;;;6.57;3.38;;;17.40;67.60;;;;;;5015263;28;20037;-49
2023/06/05 12:47:36;;;;;;;6.47;2.92;;;17.40;69.60;;;;;;5030958;28;20033;-47
2023/06/05 12:50:12;;;;;;;26.65;5.80;;;17.20;68.90;;;;;;5015285;28;20040;-46
2023/06/05 12:52:40;;;;;;;8.88;2.80;;;17.00;67.90;;;;;;5016054;28;20076;-46
2023/06/05 12:55:06;;;;;;;6.45;2.70;;;17.10;68.80;;;;;;5015358;28;20022;-49
2023/06/05 12:57:34;;;;;;;11.70;3.53;;;17.10;67.40;;;;;;5015457;28;20026;-46
2023/06/05 13:00:12;;;;;;;6.55;3.63;;;17.00;69.10;;;;;;5015306;28;20057;-47
2023/06/05 13:02:42;;;;;;;7.25;2.80;;;17.00;68.50;;;;;;5014683;28;20450;-46